sensor_id;sensor_type;location;lat;lon;timestamp;pressure;altitude;pressure_sealevel;temperature;humidity
5651;BME280;40241;52.684;9.758;2023-04-08T00:02:23;102015.13;;;10.31;47.04
5651;BME280;40241;52.684;9.758;2023-04-08T00:04:48;102018.78;;;10.28;47.06
5651;BME280;40241;52.684;9.758;2023-04-08T00:07:13;102018.16;;;10.24;47.17
5651;BME280;40241;52.684;9.758;2023-04-08T00:09:38;102025.50;;;10.27;47.18
5651;BME280;40241;52.684;9.758;2023-04-08T00:12:04;102024.09;;;10.22;47.24
5651;BME280;40241;52.684;9.758;2023-04-08T00:14:29;102026.44;;;10.24;47.23
5651;BME280;40241;52.684;9.758;2023-04-08T00:16:56;102032.06;;;10.29;47.38
5651;BME280;40241;52.684;9.758;2023-04-08T00:19:21;102031.94;;;10.33;47.24
5651;BME280;40241;52.684;9.758;2023-04-08T00:21:46;102022.59;;;10.30;47.37
5651;BME280;40241;52.684;9.758;2023-04-08T00:24:12;102024.41;;;10.24;47.24
5651;BME280;40241;52.684;9.758;2023-04-08T00:26:38;102035.88;;;10.23;47.21
5651;BME280;40241;52.684;9.758;2023-04-08T00:29:03;102038.31;;;10.21;47.43
5651;BME280;40241;52.684;9.758;2023-04-08T00:31:28;102048.44;;;10.24;47.63
5651;BME280;40241;52.684;9.758;2023-04-08T00:33:54;102038.31;;;10.21;47.72
5651;BME280;40241;52.684;9.758;2023-04-08T00:36:20;102037.56;;;10.20;47.79
5651;BME280;40241;52.684;9.758;2023-04-08T00:38:45;102039.88;;;10.22;47.78
5651;BME280;40241;52.684;9.758;2023-04-08T00:41:11;102039.88;;;10.22;47.72
5651;BME280;40241;52.684;9.758;2023-04-08T00:43:37;102034.78;;;10.11;47.93
5651;BME280;40241;52.684;9.758;2023-04-08T00:46:02;102039.53;;;10.11;48.03
5651;BME280;40241;52.684;9.758;2023-04-08T00:48:28;102041.66;;;10.07;48.35
5651;BME280;40241;52.684;9.758;2023-04-08T00:50:54;102037.81;;;10.04;48.28
5651;BME280;40241;52.684;9.758;2023-04-08T00:53:19;102040.25;;;10.02;48.35
5651;BME280;40241;52.684;9.758;2023-04-08T00:55:45;102040.56;;;10.04;48.43
5651;BME280;40241;52.684;9.758;2023-04-08T00:58:11;102030.91;;;10.00;48.62
5651;BME280;40241;52.684;9.758;2023-04-08T01:00:41;102030.91;;;10.00;48.73
5651;BME280;40241;52.684;9.758;2023-04-08T01:03:13;102035.66;;;9.99;48.79
5651;BME280;40241;52.684;9.758;2023-04-08T01:05:52;102033.22;;;10.01;48.91
5651;BME280;40241;52.684;9.758;2023-04-08T01:08:21;102027.09;;;9.97;48.85
5651;BME280;40241;52.684;9.758;2023-04-08T01:10:53;102036.41;;;10.00;49.00
5651;BME280;40241;52.684;9.758;2023-04-08T01:13:22;102023.88;;;9.99;48.94
5651;BME280;40241;52.684;9.758;2023-04-08T01:15:50;102026.50;;;10.02;48.91
5651;BME280;40241;52.684;9.758;2023-04-08T01:18:17;102035.50;;;10.03;48.92
5651;BME280;40241;52.684;9.758;2023-04-08T01:20:43;102031.06;;;10.05;49.02
5651;BME280;40241;52.684;9.758;2023-04-08T01:23:17;102026.19;;;10.00;50.19
5651;BME280;40241;52.684;9.758;2023-04-08T01:25:52;102037.16;;;9.91;50.33
5651;BME280;40241;52.684;9.758;2023-04-08T01:28:20;102036.19;;;9.85;49.52
5651;BME280;40241;52.684;9.758;2023-04-08T01:30:46;102028.91;;;9.91;49.40
5651;BME280;40241;52.684;9.758;2023-04-08T01:33:15;102024.94;;;9.92;49.40
5651;BME280;40241;52.684;9.758;2023-04-08T01:35:41;102021.41;;;9.92;49.52
5651;BME280;40241;52.684;9.758;2023-04-08T01:38:08;102027.38;;;9.90;49.45
5651;BME280;40241;52.684;9.758;2023-04-08T01:40:36;102022.94;;;9.83;49.57
5651;BME280;40241;52.684;9.758;2023-04-08T01:43:05;102028.13;;;9.81;49.81
5651;BME280;40241;52.684;9.758;2023-04-08T01:45:32;102028.88;;;9.82;49.79
5651;BME280;40241;52.684;9.758;2023-04-08T01:47:59;102028.13;;;9.81;49.99
5651;BME280;40241;52.684;9.758;2023-04-08T01:50:26;102021.09;;;9.80;49.90
5651;BME280;40241;52.684;9.758;2023-04-08T01:52:53;102017.28;;;9.78;50.08
5651;BME280;40241;52.684;9.758;2023-04-08T01:55:19;102012.84;;;9.80;50.07
5651;BME280;40241;52.684;9.758;2023-04-08T01:57:48;102012.84;;;9.80;50.22
5651;BME280;40241;52.684;9.758;2023-04-08T02:00:18;102012.38;;;9.82;50.32
5651;BME280;40241;52.684;9.758;2023-04-08T02:02:45;102005.22;;;9.85;50.19
5651;BME280;40241;52.684;9.758;2023-04-08T02:05:11;102002.28;;;9.79;50.20
5651;BME280;40241;52.684;9.758;2023-04-08T02:07:37;102005.97;;;9.76;50.34
5651;BME280;40241;52.684;9.758;2023-04-08T02:10:03;101998.19;;;9.83;50.35
5651;BME280;40241;52.684;9.758;2023-04-08T02:12:28;101995.31;;;9.87;50.21
5651;BME280;40241;52.684;9.758;2023-04-08T02:14:54;101988.59;;;9.88;50.10
5651;BME280;40241;52.684;9.758;2023-04-08T02:17:53;101999.13;;;9.80;52.58
5651;BME280;40241;52.684;9.758;2023-04-08T02:20:29;102001.38;;;9.73;50.80
5651;BME280;40241;52.684;9.758;2023-04-08T02:23:00;101997.72;;;9.76;50.69
5651;BME280;40241;52.684;9.758;2023-04-08T02:25:28;102007.97;;;9.85;50.46
5651;BME280;40241;52.684;9.758;2023-04-08T02:27:55;102005.97;;;9.85;50.45
5651;BME280;40241;52.684;9.758;2023-04-08T02:30:22;102011.03;;;9.87;50.54
5651;BME280;40241;52.684;9.758;2023-04-08T02:32:52;102013.00;;;9.86;50.52
5651;BME280;40241;52.684;9.758;2023-04-08T02:35:19;102012.84;;;9.80;50.51
5651;BME280;40241;52.684;9.758;2023-04-08T02:37:45;102015.59;;;9.80;50.85
5651;BME280;40241;52.684;9.758;2023-04-08T02:40:32;102012.97;;;9.77;52.42
5651;BME280;40241;52.684;9.758;2023-04-08T02:42:58;102011.78;;;9.78;50.61
5651;BME280;40241;52.684;9.758;2023-04-08T02:45:27;102016.50;;;9.77;50.91
5651;BME280;40241;52.684;9.758;2023-04-08T02:47:53;102026.72;;;9.77;50.85
5651;BME280;40241;52.684;9.758;2023-04-08T02:50:19;102023.97;;;9.77;51.21
5651;BME280;40241;52.684;9.758;2023-04-08T02:52:44;102020.03;;;9.78;50.86
5651;BME280;40241;52.684;9.758;2023-04-08T02:55:10;102020.31;;;9.80;50.92
5651;BME280;40241;52.684;9.758;2023-04-08T02:57:37;102028.56;;;9.80;50.91
5651;BME280;40241;52.684;9.758;2023-04-08T03:00:04;102026.59;;;9.80;51.04
5651;BME280;40241;52.684;9.758;2023-04-08T03:02:30;102035.47;;;9.85;51.05
5651;BME280;40241;52.684;9.758;2023-04-08T03:04:55;102025.38;;;9.81;51.24
5651;BME280;40241;52.684;9.758;2023-04-08T03:07:20;102031.47;;;9.86;51.22
5651;BME280;40241;52.684;9.758;2023-04-08T03:09:46;102038.66;;;9.83;51.37
5651;BME280;40241;52.684;9.758;2023-04-08T03:12:11;102030.88;;;9.81;51.14
5651;BME280;40241;52.684;9.758;2023-04-08T03:14:36;102032.41;;;9.82;51.04
5651;BME280;40241;52.684;9.758;2023-04-08T03:17:01;102029.19;;;9.84;51.17
5651;BME280;40241;52.684;9.758;2023-04-08T03:19:27;102034.06;;;9.80;51.09
5651;BME280;40241;52.684;9.758;2023-04-08T03:21:52;102030.69;;;9.76;51.28
5651;BME280;40241;52.684;9.758;2023-04-08T03:24:17;102039.56;;;9.80;51.25
5651;BME280;40241;52.684;9.758;2023-04-08T03:26:43;102042.75;;;9.78;51.46
5651;BME280;40241;52.684;9.758;2023-04-08T03:29:08;102043.41;;;9.82;51.36
5651;BME280;40241;52.684;9.758;2023-04-08T03:31:34;102046.00;;;9.86;51.53
5651;BME280;40241;52.684;9.758;2023-04-08T03:33:59;102043.72;;;9.85;51.44
5651;BME280;40241;52.684;9.758;2023-04-08T03:36:25;102051.50;;;9.86;51.39
5651;BME280;40241;52.684;9.758;2023-04-08T03:38:50;102043.72;;;9.85;51.35
5651;BME280;40241;52.684;9.758;2023-04-08T03:41:16;102053.16;;;9.83;51.43
5651;BME280;40241;52.684;9.758;2023-04-08T03:43:41;102042.94;;;9.84;51.54
5651;BME280;40241;52.684;9.758;2023-04-08T03:46:07;102049.03;;;9.79;51.66
5651;BME280;40241;52.684;9.758;2023-04-08T03:48:32;102053.75;;;9.78;51.71
5651;BME280;40241;52.684;9.758;2023-04-08T03:50:57;102046.41;;;9.75;52.00
5651;BME280;40241;52.684;9.758;2023-04-08T03:53:23;102042.28;;;9.71;51.81
5651;BME280;40241;52.684;9.758;2023-04-08T03:55:48;102046.22;;;9.70;51.90
5651;BME280;40241;52.684;9.758;2023-04-08T03:58:15;102042.84;;;9.66;52.02
5651;BME280;40241;52.684;9.758;2023-04-08T04:00:40;102043.94;;;9.68;52.19
5651;BME280;40241;52.684;9.758;2023-04-08T04:03:05;102048.53;;;9.71;52.10
5651;BME280;40241;52.684;9.758;2023-04-08T04:05:31;102041.03;;;9.72;52.04
5651;BME280;40241;52.684;9.758;2023-04-08T04:07:56;102041.69;;;9.76;52.08
5651;BME280;40241;52.684;9.758;2023-04-08T04:10:22;102045.19;;;9.76;51.79
5651;BME280;40241;52.684;9.758;2023-04-08T04:12:49;102043.06;;;9.71;52.18
5651;BME280;40241;52.684;9.758;2023-04-08T04:15:14;102048.81;;;9.64;52.63
5651;BME280;40241;52.684;9.758;2023-04-08T04:17:40;102055.66;;;9.60;52.61
5651;BME280;40241;52.684;9.758;2023-04-08T04:20:05;102065.88;;;9.59;52.46
5651;BME280;40241;52.684;9.758;2023-04-08T04:22:31;102067.44;;;9.60;52.50
5651;BME280;40241;52.684;9.758;2023-04-08T04:24:56;102069.41;;;9.60;52.63
5651;BME280;40241;52.684;9.758;2023-04-08T04:27:21;102073.22;;;9.62;52.56
5651;BME280;40241;52.684;9.758;2023-04-08T04:29:47;102084.84;;;9.66;52.63
5651;BME280;40241;52.684;9.758;2023-04-08T04:32:12;102080.44;;;9.69;52.54
5651;BME280;40241;52.684;9.758;2023-04-08T04:34:37;102083.75;;;9.64;52.30
5651;BME280;40241;52.684;9.758;2023-04-08T04:37:03;102078.09;;;9.58;52.58
5651;BME280;40241;52.684;9.758;2023-04-08T04:39:28;102079.94;;;9.61;52.62
5651;BME280;40241;52.684;9.758;2023-04-08T04:41:53;102079.94;;;9.61;52.94
5651;BME280;40241;52.684;9.758;2023-04-08T04:44:19;102092.00;;;9.64;52.71
5651;BME280;40241;52.684;9.758;2023-04-08T04:46:44;102088.50;;;9.63;52.88
5651;BME280;40241;52.684;9.758;2023-04-08T04:49:10;102093.56;;;9.65;52.84
5651;BME280;40241;52.684;9.758;2023-04-08T04:51:35;102088.06;;;9.65;53.00
5651;BME280;40241;52.684;9.758;2023-04-08T04:54:00;102097.81;;;9.66;52.80
5651;BME280;40241;52.684;9.758;2023-04-08T04:56:26;102095.06;;;9.66;52.63
5651;BME280;40241;52.684;9.758;2023-04-08T04:58:51;102095.22;;;9.62;52.92
5651;BME280;40241;52.684;9.758;2023-04-08T05:01:17;102094.44;;;9.62;52.86
5651;BME280;40241;52.684;9.758;2023-04-08T05:03:42;102095.22;;;9.62;53.04
5651;BME280;40241;52.684;9.758;2023-04-08T05:06:07;102098.53;;;9.57;53.03
5651;BME280;40241;52.684;9.758;2023-04-08T05:08:33;102095.78;;;9.57;53.03
5651;BME280;40241;52.684;9.758;2023-04-08T05:10:58;102101.59;;;9.59;53.05
5651;BME280;40241;52.684;9.758;2023-04-08T05:13:27;102107.72;;;9.63;53.09
5651;BME280;40241;52.684;9.758;2023-04-08T05:15:52;102106.69;;;9.70;53.02
5651;BME280;40241;52.684;9.758;2023-04-08T05:18:18;102114.81;;;9.73;52.84
5651;BME280;40241;52.684;9.758;2023-04-08T05:20:44;102110.97;;;9.71;52.87
5651;BME280;40241;52.684;9.758;2023-04-08T05:23:09;102111.28;;;9.73;52.95
5651;BME280;40241;52.684;9.758;2023-04-08T05:25:35;102110.66;;;9.69;53.12
5651;BME280;40241;52.684;9.758;2023-04-08T05:28:00;102109.72;;;9.63;53.45
5651;BME280;40241;52.684;9.758;2023-04-08T05:30:25;102116.09;;;9.60;53.29
5651;BME280;40241;52.684;9.758;2023-04-08T05:32:51;102121.91;;;9.62;53.36
5651;BME280;40241;52.684;9.758;2023-04-08T05:35:16;102121.59;;;9.60;53.35
5651;BME280;40241;52.684;9.758;2023-04-08T05:37:41;102117.78;;;9.57;53.77
5651;BME280;40241;52.684;9.758;2023-04-08T05:40:07;102132.28;;;9.58;53.57
5651;BME280;40241;52.684;9.758;2023-04-08T05:42:33;102133.69;;;9.62;53.50
5651;BME280;40241;52.684;9.758;2023-04-08T05:44:58;102131.56;;;9.66;53.56
5651;BME280;40241;52.684;9.758;2023-04-08T05:47:23;102125.28;;;9.66;53.95
5651;BME280;40241;52.684;9.758;2023-04-08T05:49:48;102138.41;;;9.62;53.94
5651;BME280;40241;52.684;9.758;2023-04-08T05:52:14;102128.19;;;9.62;53.82
5651;BME280;40241;52.684;9.758;2023-04-08T05:54:43;102129.59;;;9.67;54.10
5651;BME280;40241;52.684;9.758;2023-04-08T05:57:10;102137.22;;;9.72;53.78
5651;BME280;40241;52.684;9.758;2023-04-08T05:59:35;102134.69;;;9.77;53.94
5651;BME280;40241;52.684;9.758;2023-04-08T06:02:00;102136.97;;;9.79;53.91
5651;BME280;40241;52.684;9.758;2023-04-08T06:04:26;102140.31;;;9.74;53.96
5651;BME280;40241;52.684;9.758;2023-04-08T06:06:51;102142.94;;;9.77;53.96
5651;BME280;40241;52.684;9.758;2023-04-08T06:09:16;102147.84;;;9.82;54.01
5651;BME280;40241;52.684;9.758;2023-04-08T06:11:42;102144.06;;;9.89;53.97
5651;BME280;40241;52.684;9.758;2023-04-08T06:14:07;102165.91;;;9.93;53.74
5651;BME280;40241;52.684;9.758;2023-04-08T06:16:32;102157.66;;;9.93;53.85
5651;BME280;40241;52.684;9.758;2023-04-08T06:18:58;102156.88;;;9.92;54.03
5651;BME280;40241;52.684;9.758;2023-04-08T06:21:24;102153.09;;;9.99;54.06
5651;BME280;40241;52.684;9.758;2023-04-08T06:23:49;102157.25;;;10.03;53.95
5651;BME280;40241;52.684;9.758;2023-04-08T06:26:15;102156.22;;;10.10;54.00
5651;BME280;40241;52.684;9.758;2023-04-08T06:28:40;102164.38;;;10.13;54.00
5651;BME280;40241;52.684;9.758;2023-04-08T06:31:05;102162.38;;;10.14;54.05
5651;BME280;40241;52.684;9.758;2023-04-08T06:33:31;102171.31;;;10.05;54.13
5651;BME280;40241;52.684;9.758;2023-04-08T06:36:03;102169.75;;;9.95;55.17
5651;BME280;40241;52.684;9.758;2023-04-08T06:38:29;102168.50;;;9.96;54.57
5651;BME280;40241;52.684;9.758;2023-04-08T06:40:56;102170.22;;;9.94;54.62
5651;BME280;40241;52.684;9.758;2023-04-08T06:43:21;102174.94;;;9.93;54.41
5651;BME280;40241;52.684;9.758;2023-04-08T06:45:46;102173.69;;;9.94;54.56
5651;BME280;40241;52.684;9.758;2023-04-08T06:48:12;102185.97;;;10.02;54.45
5651;BME280;40241;52.684;9.758;2023-04-08T06:50:37;102182.72;;;9.95;54.86
5651;BME280;40241;52.684;9.758;2023-04-08T06:53:02;102182.16;;;10.00;54.78
5651;BME280;40241;52.684;9.758;2023-04-08T06:55:28;102183.22;;;10.02;54.56
5651;BME280;40241;52.684;9.758;2023-04-08T06:57:53;102185.06;;;10.05;54.58
5651;BME280;40241;52.684;9.758;2023-04-08T07:00:18;102187.88;;;10.14;54.49
5651;BME280;40241;52.684;9.758;2023-04-08T07:02:44;102189.75;;;10.17;54.34
5651;BME280;40241;52.684;9.758;2023-04-08T07:05:09;102188.56;;;10.27;54.28
5651;BME280;40241;52.684;9.758;2023-04-08T07:07:35;102194.06;;;10.27;54.40
5651;BME280;40241;52.684;9.758;2023-04-08T07:10:00;102188.97;;;10.17;54.51
5651;BME280;40241;52.684;9.758;2023-04-08T07:12:25;102196.00;;;10.18;54.53
5651;BME280;40241;52.684;9.758;2023-04-08T07:14:51;102195.28;;;10.26;54.54
5651;BME280;40241;52.684;9.758;2023-04-08T07:17:17;102194.25;;;10.33;54.53
5651;BME280;40241;52.684;9.758;2023-04-08T07:19:42;102197.75;;;10.33;54.49
5651;BME280;40241;52.684;9.758;2023-04-08T07:22:08;102199.88;;;10.29;54.66
5651;BME280;40241;52.684;9.758;2023-04-08T07:24:33;102201.84;;;10.29;54.55
5651;BME280;40241;52.684;9.758;2023-04-08T07:26:59;102208.31;;;10.35;54.55
5651;BME280;40241;52.684;9.758;2023-04-08T07:29:24;102200.69;;;10.39;54.41
5651;BME280;40241;52.684;9.758;2023-04-08T07:31:49;102205.72;;;10.40;54.65
5651;BME280;40241;52.684;9.758;2023-04-08T07:34:16;102214.25;;;10.33;54.84
5651;BME280;40241;52.684;9.758;2023-04-08T07:36:41;102202.66;;;10.38;54.61
5651;BME280;40241;52.684;9.758;2023-04-08T07:39:06;102204.84;;;10.52;54.66
5651;BME280;40241;52.684;9.758;2023-04-08T07:41:32;102205.19;;;10.64;54.49
5651;BME280;40241;52.684;9.758;2023-04-08T07:43:57;102204.47;;;10.72;54.26
5651;BME280;40241;52.684;9.758;2023-04-08T07:46:22;102211.47;;;10.73;54.38
5651;BME280;40241;52.684;9.758;2023-04-08T07:48:48;102209.97;;;10.72;54.53
5651;BME280;40241;52.684;9.758;2023-04-08T07:51:13;102227.84;;;10.68;54.35
5651;BME280;40241;52.684;9.758;2023-04-08T07:53:39;102201.69;;;10.72;54.38
5651;BME280;40241;52.684;9.758;2023-04-08T07:56:10;102209.22;;;10.81;55.17
5651;BME280;40241;52.684;9.758;2023-04-08T07:58:36;102214.09;;;10.86;54.27
5651;BME280;40241;52.684;9.758;2023-04-08T08:01:01;102208.31;;;10.93;54.13
5651;BME280;40241;52.684;9.758;2023-04-08T08:03:27;102214.13;;;11.04;54.20
5651;BME280;40241;52.684;9.758;2023-04-08T08:05:53;102213.84;;;11.02;54.14
5651;BME280;40241;52.684;9.758;2023-04-08T08:08:18;102217.78;;;11.01;54.11
5651;BME280;40241;52.684;9.758;2023-04-08T08:10:43;102231.41;;;10.95;54.06
5651;BME280;40241;52.684;9.758;2023-04-08T08:13:08;102234.91;;;10.87;54.44
5651;BME280;40241;52.684;9.758;2023-04-08T08:15:34;102234.63;;;10.85;54.43
5651;BME280;40241;52.684;9.758;2023-04-08T08:17:59;102241.03;;;10.91;54.57
5651;BME280;40241;52.684;9.758;2023-04-08T08:20:25;102247.16;;;10.95;54.29
5651;BME280;40241;52.684;9.758;2023-04-08T08:22:51;102249.31;;;10.91;54.30
5651;BME280;40241;52.684;9.758;2023-04-08T08:25:16;102247.00;;;10.89;54.78
5651;BME280;40241;52.684;9.758;2023-04-08T08:27:42;102249.59;;;10.84;54.63
5651;BME280;40241;52.684;9.758;2023-04-08T08:30:08;102253.25;;;10.81;55.00
5651;BME280;40241;52.684;9.758;2023-04-08T08:32:34;102253.88;;;10.85;54.80
5651;BME280;40241;52.684;9.758;2023-04-08T08:35:00;102254.19;;;10.87;54.48
5651;BME280;40241;52.684;9.758;2023-04-08T08:37:25;102254.19;;;10.87;54.69
5651;BME280;40241;52.684;9.758;2023-04-08T08:39:50;102250.19;;;10.88;54.60
5651;BME280;40241;52.684;9.758;2023-04-08T08:42:22;102255.28;;;10.89;54.66
5651;BME280;40241;52.684;9.758;2023-04-08T08:44:48;102265.84;;;11.00;54.46
5651;BME280;40241;52.684;9.758;2023-04-08T08:47:14;102258.81;;;11.08;54.39
5651;BME280;40241;52.684;9.758;2023-04-08T08:49:39;102262.97;;;11.12;54.41
5651;BME280;40241;52.684;9.758;2023-04-08T08:52:05;102268.19;;;11.19;54.34
5651;BME280;40241;52.684;9.758;2023-04-08T08:54:31;102277.53;;;11.22;54.43
5651;BME280;40241;52.684;9.758;2023-04-08T08:56:56;102269.69;;;11.20;54.54
5651;BME280;40241;52.684;9.758;2023-04-08T08:59:22;102269.88;;;11.35;54.38
5651;BME280;40241;52.684;9.758;2023-04-08T09:01:47;102282.44;;;11.45;54.16
5651;BME280;40241;52.684;9.758;2023-04-08T09:04:13;102276.31;;;11.41;53.98
5651;BME280;40241;52.684;9.758;2023-04-08T09:06:41;102273.41;;;11.36;54.10
5651;BME280;40241;52.684;9.758;2023-04-08T09:09:07;102276.00;;;11.39;54.17
5651;BME280;40241;52.684;9.758;2023-04-08T09:11:37;102278.00;;;11.48;54.18
5651;BME280;40241;52.684;9.758;2023-04-08T09:14:02;102279.22;;;11.56;54.09
5651;BME280;40241;52.684;9.758;2023-04-08T09:16:29;102290.25;;;11.47;54.17
5651;BME280;40241;52.684;9.758;2023-04-08T09:19:07;102285.38;;;11.51;54.64
5651;BME280;40241;52.684;9.758;2023-04-08T09:21:33;102292.25;;;11.55;53.97
5651;BME280;40241;52.684;9.758;2023-04-08T09:23:59;102293.66;;;11.60;54.07
5651;BME280;40241;52.684;9.758;2023-04-08T09:26:25;102296.41;;;11.69;54.10
5651;BME280;40241;52.684;9.758;2023-04-08T09:29:01;102294.91;;;11.77;54.13
5651;BME280;40241;52.684;9.758;2023-04-08T09:31:39;102294.56;;;11.84;53.93
5651;BME280;40241;52.684;9.758;2023-04-08T09:34:15;102304.06;;;11.83;54.27
5651;BME280;40241;52.684;9.758;2023-04-08T09:36:43;102303.91;;;11.86;53.80
5651;BME280;40241;52.684;9.758;2023-04-08T09:39:09;102300.84;;;11.84;53.66
5651;BME280;40241;52.684;9.758;2023-04-08T09:41:36;102310.03;;;11.90;53.72
5651;BME280;40241;52.684;9.758;2023-04-08T09:44:04;102302.09;;;11.83;53.96
5651;BME280;40241;52.684;9.758;2023-04-08T09:46:58;102307.59;;;11.74;54.59
5651;BME280;40241;52.684;9.758;2023-04-08T09:52:10;102317.41;;;11.84;54.59
5651;BME280;40241;52.684;9.758;2023-04-08T09:57:21;102306.97;;;11.88;54.03
5651;BME280;40241;52.684;9.758;2023-04-08T10:00:01;102314.34;;;12.00;54.40
5651;BME280;40241;52.684;9.758;2023-04-08T10:02:29;102322.13;;;12.02;53.68
5651;BME280;40241;52.684;9.758;2023-04-08T10:04:58;102304.84;;;11.92;53.69
5651;BME280;40241;52.684;9.758;2023-04-08T10:07:26;102310.19;;;11.87;53.89
5651;BME280;40241;52.684;9.758;2023-04-08T10:09:51;102307.31;;;11.81;53.73
5651;BME280;40241;52.684;9.758;2023-04-08T10:12:17;102309.13;;;11.84;53.82
5651;BME280;40241;52.684;9.758;2023-04-08T10:17:48;102314.94;;;12.04;53.63
5651;BME280;40241;52.684;9.758;2023-04-08T10:23:03;102327.19;;;12.03;53.73
5651;BME280;40241;52.684;9.758;2023-04-08T10:25:31;102323.50;;;12.07;53.74
5651;BME280;40241;52.684;9.758;2023-04-08T10:27:57;102323.34;;;12.10;53.80
5651;BME280;40241;52.684;9.758;2023-04-08T10:32:57;102325.97;;;12.14;53.73
5651;BME280;40241;52.684;9.758;2023-04-08T10:35:31;102333.78;;;12.06;53.72
5651;BME280;40241;52.684;9.758;2023-04-08T10:37:59;102335.03;;;11.96;53.77
5651;BME280;40241;52.684;9.758;2023-04-08T10:40:24;102321.69;;;11.94;53.74
5651;BME280;40241;52.684;9.758;2023-04-08T10:42:57;102323.81;;;11.99;54.01
5651;BME280;40241;52.684;9.758;2023-04-08T10:45:23;102326.75;;;11.87;53.98
5651;BME280;40241;52.684;9.758;2023-04-08T10:47:48;102327.53;;;11.87;54.10
5651;BME280;40241;52.684;9.758;2023-04-08T10:50:14;102327.53;;;11.96;54.12
5651;BME280;40241;52.684;9.758;2023-04-08T10:52:53;102329.63;;;12.01;55.07
5651;BME280;40241;52.684;9.758;2023-04-08T10:55:22;102324.59;;;11.91;54.54
5651;BME280;40241;52.684;9.758;2023-04-08T10:57:49;102312.81;;;11.81;54.26
5651;BME280;40241;52.684;9.758;2023-04-08T11:00:26;102322.78;;;11.88;54.49
5651;BME280;40241;52.684;9.758;2023-04-08T11:02:59;102312.97;;;11.87;54.21
5651;BME280;40241;52.684;9.758;2023-04-08T11:05:25;102320.75;;;11.88;54.12
5651;BME280;40241;52.684;9.758;2023-04-08T11:07:51;102322.78;;;11.88;54.17
5651;BME280;40241;52.684;9.758;2023-04-08T11:10:16;102330.41;;;11.84;54.29
5651;BME280;40241;52.684;9.758;2023-04-08T11:12:42;102321.09;;;11.81;54.32
5651;BME280;40241;52.684;9.758;2023-04-08T11:15:08;102329.38;;;11.81;54.14
5651;BME280;40241;52.684;9.758;2023-04-08T11:17:35;102331.34;;;11.81;54.47
5651;BME280;40241;52.684;9.758;2023-04-08T11:20:01;102333.34;;;11.98;54.38
5651;BME280;40241;52.684;9.758;2023-04-08T11:22:30;102337.31;;;12.07;54.34
5651;BME280;40241;52.684;9.758;2023-04-08T11:24:58;102338.69;;;12.11;54.08
5651;BME280;40241;52.684;9.758;2023-04-08T11:27:23;102333.78;;;12.06;53.93
5651;BME280;40241;52.684;9.758;2023-04-08T11:29:51;102353.84;;;12.07;53.99
5651;BME280;40241;52.684;9.758;2023-04-08T11:32:18;102347.88;;;12.08;54.16
5651;BME280;40241;52.684;9.758;2023-04-08T11:34:43;102343.44;;;12.01;54.17
5651;BME280;40241;52.684;9.758;2023-04-08T11:37:09;102342.06;;;11.97;54.33
5651;BME280;40241;52.684;9.758;2023-04-08T11:39:41;102347.91;;;11.99;54.49
5651;BME280;40241;52.684;9.758;2023-04-08T11:42:06;102346.06;;;12.05;54.18
5651;BME280;40241;52.684;9.758;2023-04-08T11:44:32;102344.34;;;12.17;54.23
5651;BME280;40241;52.684;9.758;2023-04-08T11:46:57;102348.03;;;12.23;53.90
5651;BME280;40241;52.684;9.758;2023-04-08T11:49:23;102342.03;;;12.33;53.94
5651;BME280;40241;52.684;9.758;2023-04-08T11:51:57;102345.22;;;12.41;53.95
5651;BME280;40241;52.684;9.758;2023-04-08T11:54:30;102346.75;;;12.42;54.35
5651;BME280;40241;52.684;9.758;2023-04-08T11:56:57;102342.00;;;12.51;53.77
5651;BME280;40241;52.684;9.758;2023-04-08T11:59:26;102343.66;;;12.58;53.68
5651;BME280;40241;52.684;9.758;2023-04-08T12:01:51;102349.13;;;12.67;53.46
5651;BME280;40241;52.684;9.758;2023-04-08T12:04:17;102333.94;;;12.71;53.46
5651;BME280;40241;52.684;9.758;2023-04-08T12:06:42;102337.75;;;12.74;53.36
5651;BME280;40241;52.684;9.758;2023-04-08T12:09:11;102343.28;;;12.74;53.28
5651;BME280;40241;52.684;9.758;2023-04-08T12:11:36;102340.66;;;12.79;53.43
5651;BME280;40241;52.684;9.758;2023-04-08T12:14:02;102345.69;;;12.90;53.26
5651;BME280;40241;52.684;9.758;2023-04-08T12:16:27;102348.00;;;12.82;53.06
5651;BME280;40241;52.684;9.758;2023-04-08T12:18:52;102358.94;;;12.77;53.13
5651;BME280;40241;52.684;9.758;2023-04-08T12:21:18;102346.66;;;12.69;53.30
5651;BME280;40241;52.684;9.758;2023-04-08T12:23:43;102372.16;;;12.64;53.51
5651;BME280;40241;52.684;9.758;2023-04-08T12:26:08;102346.38;;;12.67;53.68
5651;BME280;40241;52.684;9.758;2023-04-08T12:28:34;102350.75;;;12.82;53.47
5651;BME280;40241;52.684;9.758;2023-04-08T12:31:00;102342.19;;;12.80;53.36
5651;BME280;40241;52.684;9.758;2023-04-08T12:33:26;102347.41;;;12.78;53.05
5651;BME280;40241;52.684;9.758;2023-04-08T12:35:51;102364.16;;;12.75;53.27
5651;BME280;40241;52.684;9.758;2023-04-08T12:38:18;102343.47;;;12.61;53.18
5651;BME280;40241;52.684;9.758;2023-04-08T12:40:43;102347.66;;;12.48;53.43
5651;BME280;40241;52.684;9.758;2023-04-08T12:43:08;102348.72;;;12.59;53.55
5651;BME280;40241;52.684;9.758;2023-04-08T12:45:34;102346.22;;;12.70;53.45
5651;BME280;40241;52.684;9.758;2023-04-08T12:47:59;102345.44;;;12.70;53.49
5651;BME280;40241;52.684;9.758;2023-04-08T12:50:24;102346.66;;;12.69;53.35
5651;BME280;40241;52.684;9.758;2023-04-08T12:52:50;102345.13;;;12.77;53.38
5651;BME280;40241;52.684;9.758;2023-04-08T12:55:15;102343.72;;;12.82;53.36
5651;BME280;40241;52.684;9.758;2023-04-08T12:57:42;102345.09;;;12.86;53.23
5651;BME280;40241;52.684;9.758;2023-04-08T13:00:08;102349.84;;;12.86;53.16
5651;BME280;40241;52.684;9.758;2023-04-08T13:02:34;102345.69;;;12.90;53.23
5651;BME280;40241;52.684;9.758;2023-04-08T13:04:59;102345.78;;;12.96;53.03
5651;BME280;40241;52.684;9.758;2023-04-08T13:07:24;102340.56;;;12.98;53.32
5651;BME280;40241;52.684;9.758;2023-04-08T13:09:50;102344.59;;;12.97;53.17
5651;BME280;40241;52.684;9.758;2023-04-08T13:12:15;102347.66;;;12.90;53.00
5651;BME280;40241;52.684;9.758;2023-04-08T13:14:41;102348.78;;;12.83;53.20
5651;BME280;40241;52.684;9.758;2023-04-08T13:17:06;102345.72;;;12.81;53.21